sensor_id;sensor_type;location;lat;lon;timestamp;P1;durP1;ratioP1;P2;durP2;ratioP2
22628;SDS011;11481;53.694;9.910;2023-06-22T00:00:05;3.55;;;2.10;;
22628;SDS011;11481;53.694;9.910;2023-06-22T00:02:37;3.95;;;2.35;;
22628;SDS011;11481;53.694;9.910;2023-06-22T00:05:04;3.30;;;1.98;;
22628;SDS011;11481;53.694;9.910;2023-06-22T00:07:31;3.60;;;2.08;;
22628;SDS011;11481;53.694;9.910;2023-06-22T00:09:58;4.82;;;2.10;;
22628;SDS011;11481;53.694;9.910;2023-06-22T00:12:25;4.40;;;2.35;;
22628;SDS011;11481;53.694;9.910;2023-06-22T00:14:52;6.18;;;2.63;;
22628;SDS011;11481;53.694;9.910;2023-06-22T00:17:19;3.50;;;1.95;;
22628;SDS011;11481;53.694;9.910;2023-06-22T00:19:49;2.90;;;2.00;;
22628;SDS011;11481;53.694;9.910;2023-06-22T00:22:20;4.15;;;2.10;;
22628;SDS011;11481;53.694;9.910;2023-06-22T00:24:55;3.47;;;2.22;;
22628;SDS011;11481;53.694;9.910;2023-06-22T00:27:22;3.75;;;2.35;;
22628;SDS011;11481;53.694;9.910;2023-06-22T00:29:49;3.63;;;2.42;;
22628;SDS011;11481;53.694;9.910;2023-06-22T00:32:16;4.25;;;2.47;;
22628;SDS011;11481;53.694;9.910;2023-06-22T00:34:43;3.40;;;2.28;;
22628;SDS011;11481;53.694;9.910;2023-06-22T00:37:10;4.15;;;2.17;;
22628;SDS011;11481;53.694;9.910;2023-06-22T00:39:37;4.68;;;2.33;;
22628;SDS011;11481;53.694;9.910;2023-06-22T00:42:04;6.00;;;2.30;;
22628;SDS011;11481;53.694;9.910;2023-06-22T00:44:31;4.25;;;2.40;;
22628;SDS011;11481;53.694;9.910;2023-06-22T00:46:58;3.15;;;2.10;;
22628;SDS011;11481;53.694;9.910;2023-06-22T00:49:26;3.72;;;2.20;;
22628;SDS011;11481;53.694;9.910;2023-06-22T00:51:53;4.45;;;2.67;;
22628;SDS011;11481;53.694;9.910;2023-06-22T00:54:20;5.22;;;2.20;;
22628;SDS011;11481;53.694;9.910;2023-06-22T00:56:51;3.83;;;2.40;;
22628;SDS011;11481;53.694;9.910;2023-06-22T00:59:21;5.05;;;2.78;;
22628;SDS011;11481;53.694;9.910;2023-06-22T01:01:49;6.00;;;2.90;;
22628;SDS011;11481;53.694;9.910;2023-06-22T01:04:16;5.65;;;3.15;;
22628;SDS011;11481;53.694;9.910;2023-06-22T01:06:58;3.72;;;2.55;;
22628;SDS011;11481;53.694;9.910;2023-06-22T01:12:38;4.47;;;2.42;;
22628;SDS011;11481;53.694;9.910;2023-06-22T01:15:18;4.10;;;2.10;;
22628;SDS011;11481;53.694;9.910;2023-06-22T01:17:51;4.53;;;2.35;;
22628;SDS011;11481;53.694;9.910;2023-06-22T01:20:20;5.57;;;2.40;;
22628;SDS011;11481;53.694;9.910;2023-06-22T01:26:06;3.05;;;1.80;;
22628;SDS011;11481;53.694;9.910;2023-06-22T01:29:05;6.40;;;2.13;;
22628;SDS011;11481;53.694;9.910;2023-06-22T01:31:33;5.10;;;2.38;;
22628;SDS011;11481;53.694;9.910;2023-06-22T01:34:03;4.05;;;2.20;;
22628;SDS011;11481;53.694;9.910;2023-06-22T01:36:32;3.83;;;2.05;;
22628;SDS011;11481;53.694;9.910;2023-06-22T01:39:00;4.88;;;2.65;;
22628;SDS011;11481;53.694;9.910;2023-06-22T01:41:30;5.68;;;2.22;;
22628;SDS011;11481;53.694;9.910;2023-06-22T01:44:00;4.93;;;2.20;;
22628;SDS011;11481;53.694;9.910;2023-06-22T01:46:28;5.72;;;2.55;;
22628;SDS011;11481;53.694;9.910;2023-06-22T01:48:55;3.78;;;2.13;;
22628;SDS011;11481;53.694;9.910;2023-06-22T01:51:22;4.28;;;2.40;;
22628;SDS011;11481;53.694;9.910;2023-06-22T01:53:50;4.20;;;2.50;;
22628;SDS011;11481;53.694;9.910;2023-06-22T01:56:17;3.95;;;2.25;;
22628;SDS011;11481;53.694;9.910;2023-06-22T01:58:54;4.00;;;2.40;;
22628;SDS011;11481;53.694;9.910;2023-06-22T02:01:31;5.13;;;3.03;;
22628;SDS011;11481;53.694;9.910;2023-06-22T02:04:16;5.05;;;2.85;;
22628;SDS011;11481;53.694;9.910;2023-06-22T02:06:47;7.07;;;2.88;;
22628;SDS011;11481;53.694;9.910;2023-06-22T02:09:36;6.10;;;2.72;;
22628;SDS011;11481;53.694;9.910;2023-06-22T02:12:06;3.88;;;2.40;;
22628;SDS011;11481;53.694;9.910;2023-06-22T02:14:34;3.92;;;2.25;;
22628;SDS011;11481;53.694;9.910;2023-06-22T02:17:03;4.03;;;2.20;;
22628;SDS011;11481;53.694;9.910;2023-06-22T02:19:37;8.23;;;2.65;;
22628;SDS011;11481;53.694;9.910;2023-06-22T02:22:07;5.60;;;2.70;;
22628;SDS011;11481;53.694;9.910;2023-06-22T02:24:34;6.30;;;2.80;;
22628;SDS011;11481;53.694;9.910;2023-06-22T02:27:01;4.88;;;2.80;;
22628;SDS011;11481;53.694;9.910;2023-06-22T02:29:29;4.07;;;2.38;;
22628;SDS011;11481;53.694;9.910;2023-06-22T02:31:56;7.03;;;2.83;;
22628;SDS011;11481;53.694;9.910;2023-06-22T02:34:23;5.18;;;2.90;;
22628;SDS011;11481;53.694;9.910;2023-06-22T02:36:50;5.35;;;3.08;;
22628;SDS011;11481;53.694;9.910;2023-06-22T02:39:21;6.35;;;3.15;;
22628;SDS011;11481;53.694;9.910;2023-06-22T02:41:50;5.50;;;2.97;;
22628;SDS011;11481;53.694;9.910;2023-06-22T02:44:18;6.47;;;3.35;;
22628;SDS011;11481;53.694;9.910;2023-06-22T02:46:46;5.85;;;3.03;;
22628;SDS011;11481;53.694;9.910;2023-06-22T02:49:13;4.95;;;2.60;;
22628;SDS011;11481;53.694;9.910;2023-06-22T02:51:42;7.25;;;3.15;;
22628;SDS011;11481;53.694;9.910;2023-06-22T02:54:11;6.43;;;2.70;;
22628;SDS011;11481;53.694;9.910;2023-06-22T02:56:38;5.13;;;2.75;;
22628;SDS011;11481;53.694;9.910;2023-06-22T02:59:07;6.32;;;3.00;;
22628;SDS011;11481;53.694;9.910;2023-06-22T03:01:33;5.45;;;3.03;;
22628;SDS011;11481;53.694;9.910;2023-06-22T03:04:06;5.75;;;3.00;;
22628;SDS011;11481;53.694;9.910;2023-06-22T03:06:34;5.88;;;2.63;;
22628;SDS011;11481;53.694;9.910;2023-06-22T03:09:04;4.82;;;2.58;;
22628;SDS011;11481;53.694;9.910;2023-06-22T03:11:32;3.90;;;2.28;;
22628;SDS011;11481;53.694;9.910;2023-06-22T03:14:00;5.70;;;3.13;;
22628;SDS011;11481;53.694;9.910;2023-06-22T03:16:27;5.03;;;2.88;;
22628;SDS011;11481;53.694;9.910;2023-06-22T03:18:55;4.88;;;2.88;;
22628;SDS011;11481;53.694;9.910;2023-06-22T03:21:22;4.88;;;2.47;;
22628;SDS011;11481;53.694;9.910;2023-06-22T03:23:50;4.70;;;2.63;;
22628;SDS011;11481;53.694;9.910;2023-06-22T03:26:17;5.40;;;3.20;;
22628;SDS011;11481;53.694;9.910;2023-06-22T03:28:44;5.75;;;3.42;;
22628;SDS011;11481;53.694;9.910;2023-06-22T03:31:11;5.85;;;3.17;;
22628;SDS011;11481;53.694;9.910;2023-06-22T03:33:38;4.82;;;2.80;;
22628;SDS011;11481;53.694;9.910;2023-06-22T03:36:05;6.72;;;3.42;;
22628;SDS011;11481;53.694;9.910;2023-06-22T03:38:32;5.63;;;2.88;;
22628;SDS011;11481;53.694;9.910;2023-06-22T03:40:58;4.35;;;2.70;;
22628;SDS011;11481;53.694;9.910;2023-06-22T03:43:25;4.80;;;3.05;;
22628;SDS011;11481;53.694;9.910;2023-06-22T03:45:52;7.28;;;3.40;;
22628;SDS011;11481;53.694;9.910;2023-06-22T03:48:19;6.00;;;3.05;;
22628;SDS011;11481;53.694;9.910;2023-06-22T03:50:46;6.80;;;3.35;;
22628;SDS011;11481;53.694;9.910;2023-06-22T03:53:33;6.00;;;3.38;;
22628;SDS011;11481;53.694;9.910;2023-06-22T03:56:00;5.97;;;3.67;;
22628;SDS011;11481;53.694;9.910;2023-06-22T03:58:27;7.28;;;4.13;;
22628;SDS011;11481;53.694;9.910;2023-06-22T04:00:59;9.52;;;4.35;;
22628;SDS011;11481;53.694;9.910;2023-06-22T04:03:26;8.30;;;4.82;;
22628;SDS011;11481;53.694;9.910;2023-06-22T04:05:53;6.75;;;4.15;;
22628;SDS011;11481;53.694;9.910;2023-06-22T04:08:20;8.85;;;5.80;;
22628;SDS011;11481;53.694;9.910;2023-06-22T04:10:47;6.60;;;4.30;;
22628;SDS011;11481;53.694;9.910;2023-06-22T04:13:15;8.30;;;4.13;;
22628;SDS011;11481;53.694;9.910;2023-06-22T04:15:42;9.40;;;4.45;;
22628;SDS011;11481;53.694;9.910;2023-06-22T04:18:09;7.88;;;4.32;;
22628;SDS011;11481;53.694;9.910;2023-06-22T04:20:36;9.10;;;4.97;;
22628;SDS011;11481;53.694;9.910;2023-06-22T04:23:03;10.70;;;5.18;;
22628;SDS011;11481;53.694;9.910;2023-06-22T04:25:29;9.18;;;5.72;;
22628;SDS011;11481;53.694;9.910;2023-06-22T04:27:57;9.13;;;4.95;;
22628;SDS011;11481;53.694;9.910;2023-06-22T04:30:23;8.93;;;4.28;;
22628;SDS011;11481;53.694;9.910;2023-06-22T04:32:52;7.60;;;4.43;;
22628;SDS011;11481;53.694;9.910;2023-06-22T04:35:25;6.97;;;4.28;;
22628;SDS011;11481;53.694;9.910;2023-06-22T04:37:53;10.60;;;4.72;;
22628;SDS011;11481;53.694;9.910;2023-06-22T04:40:25;11.20;;;4.50;;
22628;SDS011;11481;53.694;9.910;2023-06-22T04:42:53;7.25;;;4.20;;
22628;SDS011;11481;53.694;9.910;2023-06-22T04:45:20;9.48;;;4.50;;
22628;SDS011;11481;53.694;9.910;2023-06-22T04:47:47;9.27;;;5.43;;
22628;SDS011;11481;53.694;9.910;2023-06-22T04:50:14;8.57;;;5.18;;
22628;SDS011;11481;53.694;9.910;2023-06-22T04:52:41;9.55;;;4.53;;
22628;SDS011;11481;53.694;9.910;2023-06-22T04:55:08;8.75;;;5.10;;
22628;SDS011;11481;53.694;9.910;2023-06-22T04:57:34;10.57;;;6.00;;
22628;SDS011;11481;53.694;9.910;2023-06-22T05:00:03;9.15;;;5.45;;
22628;SDS011;11481;53.694;9.910;2023-06-22T05:02:45;8.75;;;4.93;;
22628;SDS011;11481;53.694;9.910;2023-06-22T05:05:13;9.98;;;5.10;;
22628;SDS011;11481;53.694;9.910;2023-06-22T05:07:44;9.02;;;4.82;;
22628;SDS011;11481;53.694;9.910;2023-06-22T05:10:16;11.32;;;5.43;;
22628;SDS011;11481;53.694;9.910;2023-06-22T05:12:43;10.68;;;5.70;;
22628;SDS011;11481;53.694;9.910;2023-06-22T05:15:09;9.38;;;4.25;;
22628;SDS011;11481;53.694;9.910;2023-06-22T05:17:36;9.05;;;5.28;;
22628;SDS011;11481;53.694;9.910;2023-06-22T05:20:09;12.98;;;4.80;;
22628;SDS011;11481;53.694;9.910;2023-06-22T05:22:37;10.65;;;4.80;;
22628;SDS011;11481;53.694;9.910;2023-06-22T05:25:05;9.77;;;5.50;;
22628;SDS011;11481;53.694;9.910;2023-06-22T05:27:36;11.38;;;5.88;;
22628;SDS011;11481;53.694;9.910;2023-06-22T05:30:06;12.65;;;4.60;;
22628;SDS011;11481;53.694;9.910;2023-06-22T05:32:36;7.38;;;3.95;;
22628;SDS011;11481;53.694;9.910;2023-06-22T05:35:03;9.27;;;5.00;;
22628;SDS011;11481;53.694;9.910;2023-06-22T05:37:30;8.48;;;4.45;;
22628;SDS011;11481;53.694;9.910;2023-06-22T05:39:57;6.78;;;4.13;;
22628;SDS011;11481;53.694;9.910;2023-06-22T05:42:24;8.45;;;3.80;;
22628;SDS011;11481;53.694;9.910;2023-06-22T05:44:52;5.82;;;3.50;;
22628;SDS011;11481;53.694;9.910;2023-06-22T05:47:20;5.72;;;3.28;;
22628;SDS011;11481;53.694;9.910;2023-06-22T05:49:50;5.45;;;3.08;;
22628;SDS011;11481;53.694;9.910;2023-06-22T05:52:18;5.20;;;2.80;;
22628;SDS011;11481;53.694;9.910;2023-06-22T05:54:46;6.40;;;3.35;;
22628;SDS011;11481;53.694;9.910;2023-06-22T05:57:13;9.00;;;3.45;;
22628;SDS011;11481;53.694;9.910;2023-06-22T05:59:40;4.82;;;2.90;;
22628;SDS011;11481;53.694;9.910;2023-06-22T06:02:09;5.50;;;3.33;;
22628;SDS011;11481;53.694;9.910;2023-06-22T06:04:35;5.07;;;2.95;;
22628;SDS011;11481;53.694;9.910;2023-06-22T06:07:02;6.43;;;2.83;;
22628;SDS011;11481;53.694;9.910;2023-06-22T06:09:29;4.93;;;2.50;;
22628;SDS011;11481;53.694;9.910;2023-06-22T06:11:56;8.05;;;3.00;;
22628;SDS011;11481;53.694;9.910;2023-06-22T06:14:22;4.40;;;2.13;;
22628;SDS011;11481;53.694;9.910;2023-06-22T06:16:49;4.82;;;2.50;;
22628;SDS011;11481;53.694;9.910;2023-06-22T06:19:16;4.25;;;2.40;;
22628;SDS011;11481;53.694;9.910;2023-06-22T06:21:42;3.75;;;2.30;;
22628;SDS011;11481;53.694;9.910;2023-06-22T06:24:11;5.55;;;2.53;;
22628;SDS011;11481;53.694;9.910;2023-06-22T06:26:38;4.50;;;1.90;;
22628;SDS011;11481;53.694;9.910;2023-06-22T06:29:10;4.07;;;1.90;;
22628;SDS011;11481;53.694;9.910;2023-06-22T06:31:37;3.92;;;2.15;;
22628;SDS011;11481;53.694;9.910;2023-06-22T06:34:06;3.40;;;1.80;;
22628;SDS011;11481;53.694;9.910;2023-06-22T06:36:33;3.22;;;1.77;;
22628;SDS011;11481;53.694;9.910;2023-06-22T06:38:59;4.20;;;1.77;;
22628;SDS011;11481;53.694;9.910;2023-06-22T06:41:26;3.22;;;1.58;;
22628;SDS011;11481;53.694;9.910;2023-06-22T06:43:56;3.83;;;1.88;;
22628;SDS011;11481;53.694;9.910;2023-06-22T06:46:22;3.08;;;1.65;;
22628;SDS011;11481;53.694;9.910;2023-06-22T06:48:49;6.45;;;2.15;;
22628;SDS011;11481;53.694;9.910;2023-06-22T06:51:16;4.03;;;1.42;;
22628;SDS011;11481;53.694;9.910;2023-06-22T06:53:42;3.13;;;1.80;;
22628;SDS011;11481;53.694;9.910;2023-06-22T06:56:09;5.43;;;1.63;;
22628;SDS011;11481;53.694;9.910;2023-06-22T06:58:40;5.00;;;2.22;;
22628;SDS011;11481;53.694;9.910;2023-06-22T07:01:12;4.60;;;2.05;;
22628;SDS011;11481;53.694;9.910;2023-06-22T07:03:39;4.07;;;2.08;;
22628;SDS011;11481;53.694;9.910;2023-06-22T07:06:05;3.95;;;2.10;;
22628;SDS011;11481;53.694;9.910;2023-06-22T07:08:32;3.60;;;1.90;;
22628;SDS011;11481;53.694;9.910;2023-06-22T07:10:59;3.85;;;1.80;;
22628;SDS011;11481;53.694;9.910;2023-06-22T07:13:27;6.15;;;2.15;;
22628;SDS011;11481;53.694;9.910;2023-06-22T07:15:54;4.47;;;2.25;;
22628;SDS011;11481;53.694;9.910;2023-06-22T07:18:21;2.90;;;1.55;;
22628;SDS011;11481;53.694;9.910;2023-06-22T07:20:47;6.00;;;2.33;;
22628;SDS011;11481;53.694;9.910;2023-06-22T07:23:14;4.53;;;1.95;;
22628;SDS011;11481;53.694;9.910;2023-06-22T07:25:42;2.85;;;1.88;;
22628;SDS011;11481;53.694;9.910;2023-06-22T07:28:08;3.55;;;1.73;;
22628;SDS011;11481;53.694;9.910;2023-06-22T07:30:35;3.20;;;1.65;;
22628;SDS011;11481;53.694;9.910;2023-06-22T07:33:01;3.10;;;1.45;;
22628;SDS011;11481;53.694;9.910;2023-06-22T07:35:30;4.97;;;1.60;;
22628;SDS011;11481;53.694;9.910;2023-06-22T07:37:57;5.30;;;1.75;;
22628;SDS011;11481;53.694;9.910;2023-06-22T07:40:31;3.35;;;1.67;;
22628;SDS011;11481;53.694;9.910;2023-06-22T07:42:59;5.00;;;1.70;;
22628;SDS011;11481;53.694;9.910;2023-06-22T07:45:26;3.65;;;2.10;;
22628;SDS011;11481;53.694;9.910;2023-06-22T07:47:53;2.85;;;1.50;;
22628;SDS011;11481;53.694;9.910;2023-06-22T07:50:19;3.45;;;1.92;;
22628;SDS011;11481;53.694;9.910;2023-06-22T07:52:48;2.70;;;1.60;;
22628;SDS011;11481;53.694;9.910;2023-06-22T07:55:14;4.43;;;1.67;;
22628;SDS011;11481;53.694;9.910;2023-06-22T07:57:41;3.40;;;1.55;;
22628;SDS011;11481;53.694;9.910;2023-06-22T08:00:08;3.70;;;1.80;;
22628;SDS011;11481;53.694;9.910;2023-06-22T08:02:44;2.85;;;1.90;;
22628;SDS011;11481;53.694;9.910;2023-06-22T08:05:13;4.07;;;1.95;;
22628;SDS011;11481;53.694;9.910;2023-06-22T08:07:48;3.42;;;1.80;;
22628;SDS011;11481;53.694;9.910;2023-06-22T08:10:15;2.13;;;1.30;;
22628;SDS011;11481;53.694;9.910;2023-06-22T08:12:42;3.42;;;1.90;;
22628;SDS011;11481;53.694;9.910;2023-06-22T08:15:09;4.10;;;2.03;;
22628;SDS011;11481;53.694;9.910;2023-06-22T08:17:37;3.22;;;1.70;;
22628;SDS011;11481;53.694;9.910;2023-06-22T08:20:05;3.28;;;1.77;;
22628;SDS011;11481;53.694;9.910;2023-06-22T08:22:39;4.63;;;2.17;;
22628;SDS011;11481;53.694;9.910;2023-06-22T08:25:07;3.90;;;1.90;;
22628;SDS011;11481;53.694;9.910;2023-06-22T08:27:34;2.95;;;1.85;;
22628;SDS011;11481;53.694;9.910;2023-06-22T08:30:01;3.95;;;1.90;;
22628;SDS011;11481;53.694;9.910;2023-06-22T08:32:29;3.63;;;1.67;;
22628;SDS011;11481;53.694;9.910;2023-06-22T08:34:56;3.45;;;2.00;;
22628;SDS011;11481;53.694;9.910;2023-06-22T08:37:27;3.42;;;2.15;;
22628;SDS011;11481;53.694;9.910;2023-06-22T08:40:05;2.60;;;1.73;;
22628;SDS011;11481;53.694;9.910;2023-06-22T08:42:34;4.85;;;2.13;;
22628;SDS011;11481;53.694;9.910;2023-06-22T08:45:06;2.55;;;1.65;;
22628;SDS011;11481;53.694;9.910;2023-06-22T08:47:33;4.15;;;2.20;;
22628;SDS011;11481;53.694;9.910;2023-06-22T08:50:00;4.07;;;1.90;;
22628;SDS011;11481;53.694;9.910;2023-06-22T08:52:30;3.83;;;1.83;;
22628;SDS011;11481;53.694;9.910;2023-06-22T08:54:58;3.85;;;1.77;;
22628;SDS011;11481;53.694;9.910;2023-06-22T08:57:27;2.83;;;1.70;;
22628;SDS011;11481;53.694;9.910;2023-06-22T08:59:54;2.97;;;1.63;;
22628;SDS011;11481;53.694;9.910;2023-06-22T09:02:25;2.72;;;1.50;;
22628;SDS011;11481;53.694;9.910;2023-06-22T09:04:52;3.53;;;1.40;;
22628;SDS011;11481;53.694;9.910;2023-06-22T09:07:22;10.13;;;1.90;;
22628;SDS011;11481;53.694;9.910;2023-06-22T09:09:50;4.20;;;1.63;;
22628;SDS011;11481;53.694;9.910;2023-06-22T09:12:17;3.53;;;1.88;;
22628;SDS011;11481;53.694;9.910;2023-06-22T09:14:46;3.33;;;1.50;;
22628;SDS011;11481;53.694;9.910;2023-06-22T09:17:13;4.13;;;2.38;;
22628;SDS011;11481;53.694;9.910;2023-06-22T09:19:42;3.08;;;1.40;;
22628;SDS011;11481;53.694;9.910;2023-06-22T09:22:08;2.40;;;1.40;;
22628;SDS011;11481;53.694;9.910;2023-06-22T09:24:39;3.85;;;2.17;;
22628;SDS011;11481;53.694;9.910;2023-06-22T09:27:08;3.78;;;1.60;;
22628;SDS011;11481;53.694;9.910;2023-06-22T09:29:34;3.53;;;2.05;;
22628;SDS011;11481;53.694;9.910;2023-06-22T09:32:01;4.22;;;1.70;;
22628;SDS011;11481;53.694;9.910;2023-06-22T09:34:28;4.10;;;1.73;;
22628;SDS011;11481;53.694;9.910;2023-06-22T09:36:57;2.95;;;1.40;;
22628;SDS011;11481;53.694;9.910;2023-06-22T09:39:26;3.35;;;1.77;;
22628;SDS011;11481;53.694;9.910;2023-06-22T09:41:55;3.80;;;1.58;;
22628;SDS011;11481;53.694;9.910;2023-06-22T09:44:25;2.83;;;1.60;;
22628;SDS011;11481;53.694;9.910;2023-06-22T09:46:52;3.55;;;1.70;;
22628;SDS011;11481;53.694;9.910;2023-06-22T09:49:19;3.28;;;1.60;;
22628;SDS011;11481;53.694;9.910;2023-06-22T09:52:06;3.20;;;1.60;;
22628;SDS011;11481;53.694;9.910;2023-06-22T09:54:33;3.50;;;1.92;;
22628;SDS011;11481;53.694;9.910;2023-06-22T09:57:01;4.15;;;2.17;;
22628;SDS011;11481;53.694;9.910;2023-06-22T09:59:30;4.65;;;1.67;;
22628;SDS011;11481;53.694;9.910;2023-06-22T10:01:57;3.58;;;2.03;;
22628;SDS011;11481;53.694;9.910;2023-06-22T10:04:23;4.03;;;2.33;;
22628;SDS011;11481;53.694;9.910;2023-06-22T10:06:52;3.88;;;2.35;;
22628;SDS011;11481;53.694;9.910;2023-06-22T10:09:19;6.45;;;3.00;;
22628;SDS011;11481;53.694;9.910;2023-06-22T10:11:47;5.72;;;2.65;;
22628;SDS011;11481;53.694;9.910;2023-06-22T10:14:13;4.20;;;2.40;;
22628;SDS011;11481;53.694;9.910;2023-06-22T10:16:40;4.35;;;2.47;;
22628;SDS011;11481;53.694;9.910;2023-06-22T10:19:08;5.85;;;2.53;;
22628;SDS011;11481;53.694;9.910;2023-06-22T10:21:35;4.22;;;2.40;;
22628;SDS011;11481;53.694;9.910;2023-06-22T10:24:03;3.40;;;1.95;;
22628;SDS011;11481;53.694;9.910;2023-06-22T10:26:33;2.92;;;1.70;;
22628;SDS011;11481;53.694;9.910;2023-06-22T10:29:04;5.75;;;2.03;;
22628;SDS011;11481;53.694;9.910;2023-06-22T10:31:33;4.32;;;2.28;;
22628;SDS011;11481;53.694;9.910;2023-06-22T10:34:00;4.45;;;2.30;;
22628;SDS011;11481;53.694;9.910;2023-06-22T10:36:28;3.30;;;2.00;;
22628;SDS011;11481;53.694;9.910;2023-06-22T10:38:55;5.05;;;2.63;;
22628;SDS011;11481;53.694;9.910;2023-06-22T10:41:22;5.03;;;2.25;;
22628;SDS011;11481;53.694;9.910;2023-06-22T10:43:50;4.13;;;2.15;;
22628;SDS011;11481;53.694;9.910;2023-06-22T10:46:17;4.95;;;2.35;;
22628;SDS011;11481;53.694;9.910;2023-06-22T10:48:46;5.13;;;2.30;;
22628;SDS011;11481;53.694;9.910;2023-06-22T10:51:13;5.40;;;2.03;;
22628;SDS011;11481;53.694;9.910;2023-06-22T10:53:40;4.40;;;2.40;;
22628;SDS011;11481;53.694;9.910;2023-06-22T10:56:07;3.78;;;2.20;;
22628;SDS011;11481;53.694;9.910;2023-06-22T10:58:33;5.53;;;2.58;;
22628;SDS011;11481;53.694;9.910;2023-06-22T11:01:00;4.00;;;2.40;;
22628;SDS011;11481;53.694;9.910;2023-06-22T11:03:27;5.03;;;2.53;;
22628;SDS011;11481;53.694;9.910;2023-06-22T11:05:54;4.03;;;2.53;;
22628;SDS011;11481;53.694;9.910;2023-06-22T11:08:20;5.05;;;3.13;;
22628;SDS011;11481;53.694;9.910;2023-06-22T11:10:47;3.90;;;2.40;;
22628;SDS011;11481;53.694;9.910;2023-06-22T11:13:14;4.30;;;2.78;;
22628;SDS011;11481;53.694;9.910;2023-06-22T11:15:41;5.15;;;2.60;;
22628;SDS011;11481;53.694;9.910;2023-06-22T11:18:08;4.72;;;2.38;;
22628;SDS011;11481;53.694;9.910;2023-06-22T11:20:35;7.88;;;3.00;;
22628;SDS011;11481;53.694;9.910;2023-06-22T11:23:05;5.65;;;2.53;;
22628;SDS011;11481;53.694;9.910;2023-06-22T11:25:35;6.50;;;3.10;;
22628;SDS011;11481;53.694;9.910;2023-06-22T11:28:06;5.25;;;3.13;;
22628;SDS011;11481;53.694;9.910;2023-06-22T11:30:33;4.85;;;2.88;;
22628;SDS011;11481;53.694;9.910;2023-06-22T11:33:00;6.45;;;2.60;;
22628;SDS011;11481;53.694;9.910;2023-06-22T11:35:27;5.65;;;2.78;;
22628;SDS011;11481;53.694;9.910;2023-06-22T11:37:53;4.68;;;2.65;;
22628;SDS011;11481;53.694;9.910;2023-06-22T11:40:22;3.80;;;2.60;;
22628;SDS011;11481;53.694;9.910;2023-06-22T11:42:49;3.40;;;2.10;;
22628;SDS011;11481;53.694;9.910;2023-06-22T11:45:16;5.38;;;2.78;;
22628;SDS011;11481;53.694;9.910;2023-06-22T11:47:44;4.82;;;2.80;;
22628;SDS011;11481;53.694;9.910;2023-06-22T11:50:10;4.68;;;2.63;;
22628;SDS011;11481;53.694;9.910;2023-06-22T11:52:37;4.05;;;3.00;;
22628;SDS011;11481;53.694;9.910;2023-06-22T11:55:04;5.97;;;3.22;;
22628;SDS011;11481;53.694;9.910;2023-06-22T11:57:33;4.35;;;2.92;;
22628;SDS011;11481;53.694;9.910;2023-06-22T12:00:03;5.03;;;2.95;;
22628;SDS011;11481;53.694;9.910;2023-06-22T12:03:11;5.05;;;3.38;;
22628;SDS011;11481;53.694;9.910;2023-06-22T12:05:39;4.57;;;3.08;;
22628;SDS011;11481;53.694;9.910;2023-06-22T12:08:06;5.60;;;2.78;;
22628;SDS011;11481;53.694;9.910;2023-06-22T12:10:35;5.07;;;3.00;;
22628;SDS011;11481;53.694;9.910;2023-06-22T12:13:02;4.45;;;2.97;;
22628;SDS011;11481;53.694;9.910;2023-06-22T12:15:29;5.90;;;3.30;;
22628;SDS011;11481;53.694;9.910;2023-06-22T12:17:55;6.78;;;3.40;;
22628;SDS011;11481;53.694;9.910;2023-06-22T12:20:22;4.82;;;2.72;;
22628;SDS011;11481;53.694;9.910;2023-06-22T12:22:51;6.15;;;3.20;;
22628;SDS011;11481;53.694;9.910;2023-06-22T12:25:18;5.00;;;3.30;;
22628;SDS011;11481;53.694;9.910;2023-06-22T12:27:47;5.53;;;3.67;;
22628;SDS011;11481;53.694;9.910;2023-06-22T12:30:13;4.80;;;3.53;;
22628;SDS011;11481;53.694;9.910;2023-06-22T12:32:41;4.75;;;3.25;;
22628;SDS011;11481;53.694;9.910;2023-06-22T12:35:08;4.93;;;3.03;;
22628;SDS011;11481;53.694;9.910;2023-06-22T12:37:40;6.72;;;3.45;;
22628;SDS011;11481;53.694;9.910;2023-06-22T12:40:08;4.80;;;3.13;;
22628;SDS011;11481;53.694;9.910;2023-06-22T12:42:36;7.10;;;3.78;;
22628;SDS011;11481;53.694;9.910;2023-06-22T12:45:04;6.50;;;3.72;;
22628;SDS011;11481;53.694;9.910;2023-06-22T12:47:31;5.93;;;3.38;;
22628;SDS011;11481;53.694;9.910;2023-06-22T12:50:02;5.03;;;3.03;;
22628;SDS011;11481;53.694;9.910;2023-06-22T12:52:30;7.32;;;3.67;;
22628;SDS011;11481;53.694;9.910;2023-06-22T12:55:00;5.95;;;3.67;;
22628;SDS011;11481;53.694;9.910;2023-06-22T12:57:27;4.95;;;3.05;;
22628;SDS011;11481;53.694;9.910;2023-06-22T12:59:53;4.25;;;3.20;;
22628;SDS011;11481;53.694;9.910;2023-06-22T13:02:22;4.57;;;3.30;;
22628;SDS011;11481;53.694;9.910;2023-06-22T13:04:49;5.45;;;3.17;;
22628;SDS011;11481;53.694;9.910;2023-06-22T13:07:17;5.32;;;3.38;;
22628;SDS011;11481;53.694;9.910;2023-06-22T13:10:07;5.20;;;3.35;;
22628;SDS011;11481;53.694;9.910;2023-06-22T13:12:34;7.80;;;3.20;;
22628;SDS011;11481;53.694;9.910;2023-06-22T13:15:01;4.50;;;3.08;;
22628;SDS011;11481;53.694;9.910;2023-06-22T13:17:32;4.80;;;3.40;;
22628;SDS011;11481;53.694;9.910;2023-06-22T13:19:59;6.50;;;3.13;;
22628;SDS011;11481;53.694;9.910;2023-06-22T13:22:34;5.90;;;3.63;;
22628;SDS011;11481;53.694;9.910;2023-06-22T13:25:06;5.15;;;3.53;;
22628;SDS011;11481;53.694;9.910;2023-06-22T13:27:35;4.78;;;3.22;;
22628;SDS011;11481;53.694;9.910;2023-06-22T13:30:05;6.75;;;4.03;;
22628;SDS011;11481;53.694;9.910;2023-06-22T13:32:32;5.35;;;3.20;;
22628;SDS011;11481;53.694;9.910;2023-06-22T13:35:00;5.25;;;2.97;;
22628;SDS011;11481;53.694;9.910;2023-06-22T13:37:27;4.97;;;3.28;;
22628;SDS011;11481;53.694;9.910;2023-06-22T13:39:54;5.00;;;3.25;;
22628;SDS011;11481;53.694;9.910;2023-06-22T13:42:23;5.13;;;3.20;;
22628;SDS011;11481;53.694;9.910;2023-06-22T13:44:52;6.32;;;3.03;;
22628;SDS011;11481;53.694;9.910;2023-06-22T13:47:19;3.90;;;3.15;;
22628;SDS011;11481;53.694;9.910;2023-06-22T13:49:45;5.15;;;3.45;;
22628;SDS011;11481;53.694;9.910;2023-06-22T13:52:14;5.40;;;3.53;;
22628;SDS011;11481;53.694;9.910;2023-06-22T13:54:41;5.03;;;3.58;;
22628;SDS011;11481;53.694;9.910;2023-06-22T13:57:07;5.10;;;3.70;;
22628;SDS011;11481;53.694;9.910;2023-06-22T13:59:38;4.63;;;3.50;;
22628;SDS011;11481;53.694;9.910;2023-06-22T14:02:07;4.95;;;3.50;;
22628;SDS011;11481;53.694;9.910;2023-06-22T14:04:35;5.82;;;3.55;;
22628;SDS011;11481;53.694;9.910;2023-06-22T14:07:02;5.15;;;3.42;;
22628;SDS011;11481;53.694;9.910;2023-06-22T14:09:29;6.38;;;3.85;;
22628;SDS011;11481;53.694;9.910;2023-06-22T14:11:56;4.30;;;3.35;;
22628;SDS011;11481;53.694;9.910;2023-06-22T14:14:22;5.93;;;4.53;;
22628;SDS011;11481;53.694;9.910;2023-06-22T14:16:49;5.55;;;3.88;;
22628;SDS011;11481;53.694;9.910;2023-06-22T14:19:19;6.90;;;4.20;;
22628;SDS011;11481;53.694;9.910;2023-06-22T14:21:46;5.93;;;3.50;;
22628;SDS011;11481;53.694;9.910;2023-06-22T14:24:12;7.30;;;4.05;;
22628;SDS011;11481;53.694;9.910;2023-06-22T14:26:41;6.28;;;4.03;;
22628;SDS011;11481;53.694;9.910;2023-06-22T14:29:07;5.72;;;4.10;;
22628;SDS011;11481;53.694;9.910;2023-06-22T14:31:37;6.68;;;4.07;;
22628;SDS011;11481;53.694;9.910;2023-06-22T14:34:04;5.68;;;3.85;;
22628;SDS011;11481;53.694;9.910;2023-06-22T14:36:32;5.85;;;3.78;;
22628;SDS011;11481;53.694;9.910;2023-06-22T14:39:03;5.95;;;4.28;;
22628;SDS011;11481;53.694;9.910;2023-06-22T14:41:32;6.45;;;3.85;;
22628;SDS011;11481;53.694;9.910;2023-06-22T14:44:02;5.75;;;3.20;;
22628;SDS011;11481;53.694;9.910;2023-06-22T14:46:29;5.28;;;3.58;;
22628;SDS011;11481;53.694;9.910;2023-06-22T14:48:55;4.90;;;3.40;;
22628;SDS011;11481;53.694;9.910;2023-06-22T14:51:22;5.47;;;4.22;;
22628;SDS011;11481;53.694;9.910;2023-06-22T14:53:49;6.10;;;4.00;;
22628;SDS011;11481;53.694;9.910;2023-06-22T14:56:16;6.03;;;4.07;;
22628;SDS011;11481;53.694;9.910;2023-06-22T14:58:43;5.25;;;3.85;;
22628;SDS011;11481;53.694;9.910;2023-06-22T15:01:13;5.38;;;3.97;;